CPX656 Details

Departure: Key West International Airport (KEYW)
Arrival: The Florida Keys Marathon International Airport (KMTH) at N/A
Route: VPKOE
Notes:


Current Weather Information
KEYW 190553Z AUTO 18017KT 10SM FEW020 29/24 A2983 RMK AO2 SLP100 60012 T02890244 10294 20256 58016
KMTH 190553Z AUTO 15009G18KT 10SM SCT100 29/24 A2984 RMK AO2 SLP104 T02890244 10289 20289 56016